createdAt,value
2019-05-20T00:00:04.524Z,965.14
2019-05-20T00:01:04.635Z,965.06
2019-05-20T00:02:04.815Z,965.03
2019-05-20T00:03:04.591Z,965.14
2019-05-20T00:04:04.624Z,965.14
2019-05-20T00:05:04.642Z,964.97
2019-05-20T00:06:05.254Z,965.03
2019-05-20T00:07:05.148Z,965.03
2019-05-20T00:08:05.306Z,965.09
2019-05-20T00:09:05.381Z,964.98
2019-05-20T00:10:04.625Z,965.10
2019-05-20T00:11:05.319Z,965.10
2019-05-20T00:12:05.302Z,965.13
2019-05-20T00:13:04.752Z,965.21
2019-05-20T00:14:05.200Z,965.10
2019-05-20T00:15:05.163Z,965.10
2019-05-20T00:16:05.204Z,965.04
2019-05-20T00:17:05.160Z,965.10
2019-05-20T00:18:04.461Z,965.19
2019-05-20T00:19:04.946Z,965.16
2019-05-20T00:20:04.549Z,965.04
2019-05-20T00:21:04.645Z,965.10
2019-05-20T00:22:05.233Z,965.04
2019-05-20T00:23:04.742Z,965.02
2019-05-20T00:24:04.784Z,964.96
2019-05-20T00:25:05.101Z,965.10
2019-05-20T00:26:05.020Z,965.07
2019-05-20T00:27:05.146Z,964.93
2019-05-20T00:28:05.221Z,965.08
2019-05-20T00:29:05.083Z,964.93
2019-05-20T00:30:05.094Z,964.99
2019-05-20T00:31:05.272Z,965.08
2019-05-20T00:32:05.260Z,964.96
2019-05-20T00:33:04.612Z,964.99
2019-05-20T00:34:04.788Z,965.02
2019-05-20T00:35:05.024Z,964.94
2019-05-20T00:36:05.059Z,965.02
2019-05-20T00:37:04.681Z,964.97
2019-05-20T00:38:04.571Z,964.97
2019-05-20T00:39:04.771Z,964.91
2019-05-20T00:40:05.350Z,964.85
2019-05-20T00:41:05.260Z,964.91
2019-05-20T00:42:05.407Z,965.00
2019-05-20T00:43:04.562Z,964.94
2019-05-20T00:44:09.658Z,964.83
2019-05-20T00:45:04.958Z,964.91
2019-05-20T00:46:05.193Z,964.94
2019-05-20T00:47:04.740Z,964.85
2019-05-20T00:48:05.282Z,964.83
2019-05-20T00:49:05.164Z,964.86
2019-05-20T00:50:05.143Z,964.83
2019-05-20T00:51:05.182Z,964.78
2019-05-20T00:52:04.771Z,964.83
2019-05-20T00:53:05.058Z,964.88
2019-05-20T00:54:04.991Z,964.86
2019-05-20T00:55:05.123Z,964.89
2019-05-20T00:56:05.068Z,964.83
2019-05-20T00:57:04.514Z,964.95
2019-05-20T00:58:04.391Z,964.78
2019-05-20T00:59:04.799Z,964.73
2019-05-20T01:00:04.860Z,964.86
2019-05-20T01:01:04.905Z,964.83
2019-05-20T01:02:05.154Z,964.70
2019-05-20T01:03:04.992Z,964.86
2019-05-20T01:04:04.994Z,964.67
2019-05-20T01:05:04.910Z,964.67
2019-05-20T01:06:05.042Z,964.67
2019-05-20T01:07:10.230Z,964.70
2019-05-20T01:08:04.575Z,964.64
2019-05-20T01:09:04.409Z,964.58
2019-05-20T01:10:04.464Z,964.61
2019-05-20T01:11:04.995Z,964.55
2019-05-20T01:12:04.925Z,964.67
2019-05-20T01:13:04.983Z,964.75
2019-05-20T01:14:05.147Z,964.70
2019-05-20T01:15:05.011Z,964.64
2019-05-20T01:16:05.343Z,964.70
2019-05-20T01:17:04.764Z,964.73
2019-05-20T01:18:04.836Z,964.83
2019-05-20T01:19:05.235Z,964.64
2019-05-20T01:20:04.757Z,964.73
2019-05-20T01:21:04.904Z,964.70
2019-05-20T01:22:05.340Z,964.64
2019-05-20T01:23:05.293Z,964.67
2019-05-20T01:24:05.215Z,964.76
2019-05-20T01:25:05.236Z,964.67
2019-05-20T01:26:04.479Z,964.64
2019-05-20T01:27:04.552Z,964.59
2019-05-20T01:28:04.438Z,964.59
2019-05-20T01:29:05.281Z,964.83
2019-05-20T01:30:04.834Z,964.59
2019-05-20T01:31:04.709Z,964.53
2019-05-20T01:32:05.141Z,964.62
2019-05-20T01:33:14.527Z,964.59
2019-05-20T01:34:04.976Z,964.64
2019-05-20T01:35:05.122Z,964.64
2019-05-20T01:36:05.313Z,964.68
2019-05-20T01:37:04.559Z,964.62
2019-05-20T01:38:04.601Z,964.65
2019-05-20T01:39:04.552Z,964.62
2019-05-20T01:40:04.454Z,964.59
2019-05-20T01:41:04.917Z,964.51
2019-05-20T01:42:04.950Z,964.54
2019-05-20T01:43:05.293Z,964.42
2019-05-20T01:44:10.323Z,964.48
2019-05-20T01:45:04.663Z,964.45
2019-05-20T01:46:04.963Z,964.54
2019-05-20T01:47:04.875Z,964.62
2019-05-20T01:48:05.306Z,964.56
2019-05-20T01:49:04.522Z,964.45
2019-05-20T01:50:04.771Z,964.50
2019-05-20T01:51:04.831Z,964.48
2019-05-20T01:52:04.802Z,964.47
2019-05-20T01:53:05.233Z,964.50
2019-05-20T01:54:04.590Z,964.39
2019-05-20T01:55:04.665Z,964.42
2019-05-20T01:56:05.163Z,964.44
2019-05-20T01:57:05.095Z,964.44
2019-05-20T01:58:04.820Z,964.47
2019-05-20T01:59:04.963Z,964.56
2019-05-20T02:00:04.555Z,964.47
2019-05-20T02:01:04.847Z,964.53
2019-05-20T02:02:04.908Z,964.47
2019-05-20T02:03:05.176Z,964.53
2019-05-20T02:04:04.450Z,964.36
2019-05-20T02:05:04.774Z,964.41
2019-05-20T02:06:04.820Z,964.44
2019-05-20T02:07:05.271Z,964.41
2019-05-20T02:08:05.144Z,964.41
2019-05-20T02:09:04.765Z,964.38
2019-05-20T02:10:05.158Z,964.44
2019-05-20T02:11:04.594Z,964.44
2019-05-20T02:12:04.561Z,964.44
2019-05-20T02:13:04.545Z,964.58
2019-05-20T02:14:04.937Z,964.44
2019-05-20T02:15:05.146Z,964.50
2019-05-20T02:16:04.930Z,964.56
2019-05-20T02:17:05.073Z,964.41
2019-05-20T02:18:05.439Z,964.50
2019-05-20T02:19:05.286Z,964.56
2019-05-20T02:20:05.461Z,964.33
2019-05-20T02:21:05.040Z,964.44
2019-05-20T02:22:04.503Z,964.36
2019-05-20T02:23:05.125Z,964.53
2019-05-20T02:24:04.476Z,964.39
2019-05-20T02:25:04.331Z,964.39
2019-05-20T02:26:04.547Z,964.39
2019-05-20T02:27:05.043Z,964.27
2019-05-20T02:28:04.439Z,964.33
2019-05-20T02:29:04.797Z,964.33
2019-05-20T02:30:04.713Z,964.25
2019-05-20T02:31:05.100Z,964.39
2019-05-20T02:32:05.270Z,964.50
2019-05-20T02:33:04.796Z,964.45
2019-05-20T02:34:05.151Z,964.31
2019-05-20T02:35:05.387Z,964.22
2019-05-20T02:36:05.418Z,964.28
2019-05-20T02:37:05.262Z,964.28
2019-05-20T02:38:05.310Z,964.11
2019-05-20T02:39:05.484Z,964.13
2019-05-20T02:40:04.798Z,964.13
2019-05-20T02:41:05.065Z,964.19
2019-05-20T02:42:04.986Z,964.25
2019-05-20T02:43:05.132Z,964.25
2019-05-20T02:44:10.323Z,964.22
2019-05-20T02:45:04.760Z,964.11
2019-05-20T02:46:04.603Z,964.20
2019-05-20T02:47:05.313Z,964.28
2019-05-20T02:48:05.141Z,964.17
2019-05-20T02:49:04.415Z,964.26
2019-05-20T02:50:04.919Z,964.26
2019-05-20T02:51:05.378Z,964.29
2019-05-20T02:52:04.526Z,964.14
2019-05-20T02:53:04.461Z,964.34
2019-05-20T02:54:04.394Z,964.32
2019-05-20T02:55:04.751Z,964.17
2019-05-20T02:56:04.575Z,964.15
2019-05-20T02:57:04.842Z,964.32
2019-05-20T02:58:05.092Z,964.15
2019-05-20T02:59:05.390Z,964.24
2019-05-20T03:00:04.640Z,964.07
2019-05-20T03:01:04.860Z,964.18
2019-05-20T03:02:04.832Z,964.07
2019-05-20T03:03:04.738Z,964.27
2019-05-20T03:04:12.942Z,964.16
2019-05-20T03:05:04.797Z,964.24
2019-05-20T03:06:05.029Z,964.13
2019-05-20T03:07:04.424Z,964.24
2019-05-20T03:08:04.997Z,964.22
2019-05-20T03:09:05.412Z,964.16
2019-05-20T03:10:05.275Z,964.16
2019-05-20T03:11:05.398Z,964.16
2019-05-20T03:12:05.294Z,964.16
2019-05-20T03:13:05.302Z,964.19
2019-05-20T03:14:05.381Z,964.22
2019-05-20T03:15:04.991Z,964.13
2019-05-20T03:16:05.221Z,964.33
2019-05-20T03:17:05.087Z,964.22
2019-05-20T03:18:05.390Z,964.25
2019-05-20T03:19:04.641Z,964.30
2019-05-20T03:20:04.791Z,964.31
2019-05-20T03:21:05.328Z,964.31
2019-05-20T03:22:05.013Z,964.39
2019-05-20T03:23:05.395Z,964.31
2019-05-20T03:24:04.677Z,964.28
2019-05-20T03:25:04.868Z,964.22
2019-05-20T03:26:04.995Z,964.14
2019-05-20T03:27:05.048Z,964.28
2019-05-20T03:28:05.079Z,964.34
2019-05-20T03:29:04.566Z,964.40
2019-05-20T03:30:04.485Z,964.40
2019-05-20T03:31:04.731Z,964.37
2019-05-20T03:32:04.823Z,964.31
2019-05-20T03:33:04.819Z,964.34
2019-05-20T03:34:04.838Z,964.31
2019-05-20T03:35:05.421Z,964.29
2019-05-20T03:36:04.819Z,964.29
2019-05-20T03:37:05.139Z,964.23
2019-05-20T03:38:04.434Z,964.23
2019-05-20T03:39:05.015Z,964.29
2019-05-20T03:40:05.127Z,964.34
2019-05-20T03:41:05.198Z,964.34
2019-05-20T03:42:04.639Z,964.34
2019-05-20T03:43:04.772Z,964.32
2019-05-20T03:44:10.042Z,964.32
2019-05-20T03:45:05.383Z,964.32
2019-05-20T03:46:04.943Z,964.29
2019-05-20T03:47:04.837Z,964.29
2019-05-20T03:48:04.769Z,964.26
2019-05-20T03:49:05.433Z,964.26
2019-05-20T03:50:05.343Z,964.18
2019-05-20T03:51:05.364Z,964.18
2019-05-20T03:52:04.473Z,964.24
2019-05-20T03:53:04.517Z,964.24
2019-05-20T03:54:04.362Z,964.27
2019-05-20T03:55:04.560Z,964.12
2019-05-20T03:56:05.185Z,964.15
2019-05-20T03:57:05.225Z,964.12
2019-05-20T03:58:05.091Z,964.23
2019-05-20T03:59:05.098Z,964.29
2019-05-20T04:00:05.250Z,964.29
2019-05-20T04:01:05.110Z,964.23
2019-05-20T04:02:04.985Z,964.18
2019-05-20T04:03:04.579Z,964.18
2019-05-20T04:04:04.894Z,964.14
2019-05-20T04:05:04.403Z,964.20
2019-05-20T04:06:04.444Z,964.20
2019-05-20T04:07:04.623Z,964.26
2019-05-20T04:08:04.415Z,964.12
2019-05-20T04:09:04.409Z,964.17
2019-05-20T04:10:04.818Z,964.12
2019-05-20T04:11:04.883Z,964.20
2019-05-20T04:12:05.139Z,964.14
2019-05-20T04:13:05.082Z,964.12
2019-05-20T04:14:05.276Z,964.17
2019-05-20T04:15:10.306Z,964.11
2019-05-20T04:16:04.637Z,964.14
2019-05-20T04:17:04.677Z,964.12
2019-05-20T04:18:05.137Z,964.06
2019-05-20T04:19:04.623Z,964.12
2019-05-20T04:20:04.695Z,964.03
2019-05-20T04:21:04.810Z,964.09
2019-05-20T04:22:04.848Z,964.11
2019-05-20T04:23:05.001Z,964.03
2019-05-20T04:24:05.644Z,964.11
2019-05-20T04:25:04.909Z,963.97
2019-05-20T04:26:05.368Z,964.08
2019-05-20T04:27:04.392Z,964.00
2019-05-20T04:28:04.848Z,964.00
2019-05-20T04:29:05.310Z,964.03
2019-05-20T04:30:05.261Z,964.00
2019-05-20T04:31:05.295Z,964.14
2019-05-20T04:32:04.447Z,964.06
2019-05-20T04:33:04.557Z,964.20
2019-05-20T04:34:04.784Z,964.17
2019-05-20T04:35:23.051Z,964.23
2019-05-20T04:36:04.915Z,964.17
2019-05-20T04:37:04.496Z,964.34
2019-05-20T04:38:05.341Z,964.26
2019-05-20T04:39:04.809Z,964.14
2019-05-20T04:40:04.697Z,964.14
2019-05-20T04:41:05.247Z,964.26
2019-05-20T04:42:07.371Z,964.11
2019-05-20T04:43:04.864Z,964.05
2019-05-20T04:44:04.901Z,964.17
2019-05-20T04:45:05.141Z,964.05
2019-05-20T04:46:05.371Z,964.02
2019-05-20T04:47:04.614Z,963.96
2019-05-20T04:48:04.528Z,963.99
2019-05-20T04:49:09.598Z,963.99
2019-05-20T04:50:04.945Z,964.13
2019-05-20T04:51:04.835Z,963.96
2019-05-20T04:52:04.995Z,963.99
2019-05-20T04:53:05.291Z,963.86
2019-05-20T04:54:04.796Z,963.86
2019-05-20T04:55:04.774Z,963.88
2019-05-20T04:56:04.796Z,964.02
2019-05-20T04:57:05.403Z,963.90
2019-05-20T04:58:04.531Z,964.01
2019-05-20T04:59:04.856Z,963.93
2019-05-20T05:00:05.189Z,964.04
2019-05-20T05:01:05.143Z,964.07
2019-05-20T05:02:05.354Z,964.10
2019-05-20T05:03:05.262Z,964.21
2019-05-20T05:04:05.262Z,964.04
2019-05-20T05:05:04.774Z,964.18
2019-05-20T05:06:05.102Z,963.95
2019-05-20T05:07:05.179Z,964.01
2019-05-20T05:08:05.243Z,964.01
2019-05-20T05:09:05.275Z,964.04
2019-05-20T05:10:05.387Z,964.15
2019-05-20T05:11:04.359Z,964.09
2019-05-20T05:12:04.390Z,964.15
2019-05-20T05:13:04.619Z,964.07
2019-05-20T05:14:04.521Z,964.24
2019-05-20T05:15:08.276Z,964.12
2019-05-20T05:16:04.906Z,964.12
2019-05-20T05:17:04.929Z,964.09
2019-05-20T05:18:04.832Z,964.06
2019-05-20T05:19:05.307Z,964.12
2019-05-20T05:20:05.750Z,964.17
2019-05-20T05:21:05.316Z,964.15
2019-05-20T05:22:05.320Z,964.09
2019-05-20T05:23:09.644Z,964.15
2019-05-20T05:24:04.878Z,964.14
2019-05-20T05:25:04.857Z,964.20
2019-05-20T05:26:05.271Z,964.26
2019-05-20T05:27:04.633Z,964.17
2019-05-20T05:28:04.607Z,964.06
2019-05-20T05:29:04.951Z,964.03
2019-05-20T05:30:05.165Z,964.17
2019-05-20T05:31:05.133Z,964.17
2019-05-20T05:32:05.076Z,964.20
2019-05-20T05:33:05.331Z,964.20
2019-05-20T05:34:05.236Z,964.28
2019-05-20T05:35:05.443Z,964.31
2019-05-20T05:36:05.251Z,964.25
2019-05-20T05:37:04.693Z,964.28
2019-05-20T05:38:05.072Z,964.22
2019-05-20T05:39:04.999Z,964.34
2019-05-20T05:40:08.680Z,964.28
2019-05-20T05:41:05.254Z,964.34
2019-05-20T05:42:04.391Z,964.28
2019-05-20T05:43:04.836Z,964.34
2019-05-20T05:44:10.109Z,964.42
2019-05-20T05:45:05.397Z,964.36
2019-05-20T05:46:04.417Z,964.25
2019-05-20T05:47:05.315Z,964.31
2019-05-20T05:48:04.658Z,964.27
2019-05-20T05:49:05.223Z,964.30
2019-05-20T05:50:04.621Z,964.27
2019-05-20T05:51:04.449Z,964.27
2019-05-20T05:52:04.559Z,964.30
2019-05-20T05:53:04.526Z,964.24
2019-05-20T05:54:04.836Z,964.32
2019-05-20T05:55:05.226Z,964.27
2019-05-20T05:56:05.307Z,964.15
2019-05-20T05:57:05.449Z,964.21
2019-05-20T05:58:09.084Z,964.15
2019-05-20T05:59:04.689Z,964.12
2019-05-20T06:00:05.205Z,964.29
2019-05-20T06:01:05.371Z,964.06
2019-05-20T06:02:04.537Z,964.09
2019-05-20T06:03:04.451Z,964.20
2019-05-20T06:04:04.459Z,964.23
2019-05-20T06:05:04.441Z,964.23
2019-05-20T06:06:13.589Z,964.20
2019-05-20T06:07:05.517Z,964.14
2019-05-20T06:08:04.646Z,964.17
2019-05-20T06:09:04.922Z,964.08
2019-05-20T06:10:04.653Z,964.19
2019-05-20T06:11:04.847Z,963.99
2019-05-20T06:12:05.265Z,964.13
2019-05-20T06:13:05.595Z,964.01
2019-05-20T06:14:06.059Z,964.13
2019-05-20T06:15:04.895Z,964.04
2019-05-20T06:16:04.393Z,964.10
2019-05-20T06:17:05.173Z,964.15
2019-05-20T06:18:05.295Z,964.18
2019-05-20T06:19:05.234Z,964.20
2019-05-20T06:20:05.316Z,964.25
2019-05-20T06:21:05.368Z,964.25
2019-05-20T06:22:04.590Z,964.16
2019-05-20T06:23:04.596Z,964.19
2019-05-20T06:24:04.382Z,964.15
2019-05-20T06:25:05.352Z,964.29
2019-05-20T06:26:04.849Z,964.26
2019-05-20T06:27:05.001Z,964.34
2019-05-20T06:28:05.174Z,964.22
2019-05-20T06:29:05.191Z,964.33
2019-05-20T06:30:04.649Z,964.16
2019-05-20T06:31:04.914Z,964.15
2019-05-20T06:32:04.984Z,964.35
2019-05-20T06:33:04.869Z,964.26
2019-05-20T06:34:04.807Z,964.40
2019-05-20T06:35:05.369Z,964.25
2019-05-20T06:36:05.323Z,964.31
2019-05-20T06:37:05.322Z,964.39
2019-05-20T06:38:04.371Z,964.33
2019-05-20T06:39:05.430Z,964.42
2019-05-20T06:40:04.835Z,964.39
2019-05-20T06:41:04.859Z,964.41
2019-05-20T06:42:04.983Z,964.41
2019-05-20T06:43:05.200Z,964.32
2019-05-20T06:44:10.224Z,964.38
2019-05-20T06:45:04.471Z,964.46
2019-05-20T06:46:04.578Z,964.49
2019-05-20T06:47:04.461Z,964.43
2019-05-20T06:48:05.110Z,964.43
2019-05-20T06:49:04.411Z,964.49
2019-05-20T06:50:05.382Z,964.34
2019-05-20T06:51:04.686Z,964.31
2019-05-20T06:52:04.776Z,964.34
2019-05-20T06:53:05.231Z,964.39
2019-05-20T06:54:05.045Z,964.42
2019-05-20T06:55:05.151Z,964.35
2019-05-20T06:56:05.424Z,964.32
2019-05-20T06:57:04.557Z,964.41
2019-05-20T06:58:05.078Z,964.35
2019-05-20T06:59:04.492Z,964.37
2019-05-20T07:00:05.084Z,964.48
2019-05-20T07:01:04.941Z,964.22
2019-05-20T07:02:05.244Z,964.33
2019-05-20T07:03:04.837Z,964.33
2019-05-20T07:04:04.781Z,964.30
2019-05-20T07:05:04.704Z,964.38
2019-05-20T07:06:04.717Z,964.41
2019-05-20T07:07:21.481Z,964.38
2019-05-20T07:08:05.041Z,964.32
2019-05-20T07:09:04.892Z,964.43
2019-05-20T07:10:05.039Z,964.43
2019-05-20T07:11:04.923Z,964.40
2019-05-20T07:12:05.335Z,964.40
2019-05-20T07:13:04.837Z,964.37
2019-05-20T07:14:04.815Z,964.37
2019-05-20T07:15:04.872Z,964.39
2019-05-20T07:16:05.021Z,964.42
2019-05-20T07:17:04.886Z,964.59
2019-05-20T07:18:04.944Z,964.48
2019-05-20T07:19:05.059Z,964.56
2019-05-20T07:20:05.133Z,964.53
2019-05-20T07:21:05.130Z,964.27
2019-05-20T07:22:04.456Z,964.29
2019-05-20T07:23:04.378Z,964.21
2019-05-20T07:24:04.819Z,964.35
2019-05-20T07:25:04.822Z,964.43
2019-05-20T07:26:04.756Z,964.37
2019-05-20T07:27:05.487Z,964.34
2019-05-20T07:28:05.313Z,964.28
2019-05-20T07:29:05.326Z,964.27
2019-05-20T07:30:04.484Z,964.35
2019-05-20T07:31:05.060Z,964.18
2019-05-20T07:32:04.676Z,964.26
2019-05-20T07:33:04.592Z,964.17
2019-05-20T07:34:05.003Z,964.34
2019-05-20T07:35:05.159Z,964.36
2019-05-20T07:36:04.599Z,964.36
2019-05-20T07:37:04.599Z,964.36
2019-05-20T07:38:04.787Z,964.27
2019-05-20T07:39:04.919Z,964.30
2019-05-20T07:40:05.314Z,964.29
2019-05-20T07:41:05.257Z,964.35
2019-05-20T07:42:04.950Z,964.37
2019-05-20T07:43:04.804Z,964.28
2019-05-20T07:44:10.187Z,964.25
2019-05-20T07:45:04.493Z,964.30
2019-05-20T07:46:04.675Z,964.32
2019-05-20T07:47:04.989Z,964.17
2019-05-20T07:48:05.011Z,964.25
2019-05-20T07:49:05.387Z,964.25
2019-05-20T07:50:05.434Z,964.13
2019-05-20T07:51:05.364Z,964.27
2019-05-20T07:52:05.392Z,964.15
2019-05-20T07:53:04.393Z,964.17
2019-05-20T07:54:05.089Z,964.14
2019-05-20T07:55:05.451Z,964.14
2019-05-20T07:56:05.294Z,964.28
2019-05-20T07:57:05.399Z,964.33
2019-05-20T07:58:05.290Z,964.27
2019-05-20T07:59:04.341Z,964.30
2019-05-20T08:00:04.813Z,964.24
2019-05-20T08:01:04.957Z,964.41
2019-05-20T08:02:05.177Z,964.44
2019-05-20T08:03:05.240Z,964.30
2019-05-20T08:04:05.153Z,964.29
2019-05-20T08:05:04.616Z,964.29
2019-05-20T08:06:04.735Z,964.41
2019-05-20T08:07:35.766Z,964.38
2019-05-20T08:08:04.782Z,964.20
2019-05-20T08:09:04.825Z,964.29
2019-05-20T08:10:05.336Z,964.40
2019-05-20T08:11:05.256Z,964.40
2019-05-20T08:12:04.400Z,964.34
2019-05-20T08:13:04.683Z,964.40
2019-05-20T08:14:04.828Z,964.37
2019-05-20T08:15:05.016Z,964.37
2019-05-20T08:16:04.593Z,964.39
2019-05-20T08:17:05.001Z,964.30
2019-05-20T08:18:05.097Z,964.30
2019-05-20T08:19:05.117Z,964.36
2019-05-20T08:20:05.130Z,964.24
2019-05-20T08:21:05.106Z,964.27
2019-05-20T08:22:05.009Z,964.32
2019-05-20T08:23:05.011Z,964.29
2019-05-20T08:24:05.125Z,964.35
2019-05-20T08:25:04.599Z,964.23
2019-05-20T08:26:04.510Z,964.28
2019-05-20T08:27:05.052Z,964.20
2019-05-20T08:28:05.334Z,964.37
2019-05-20T08:29:05.217Z,964.37
2019-05-20T08:30:04.611Z,964.45
2019-05-20T08:31:04.504Z,964.30
2019-05-20T08:32:04.504Z,964.45
2019-05-20T08:33:04.751Z,964.30
2019-05-20T08:34:04.909Z,964.24
2019-05-20T08:35:05.000Z,964.35
2019-05-20T08:36:04.379Z,964.35
2019-05-20T08:37:04.903Z,964.35
2019-05-20T08:38:04.780Z,964.35
2019-05-20T08:39:04.688Z,964.35
2019-05-20T08:40:04.807Z,964.29
2019-05-20T08:41:05.215Z,964.38
2019-05-20T08:42:05.066Z,964.41
2019-05-20T08:43:04.545Z,964.44
2019-05-20T08:44:04.821Z,964.38
2019-05-20T08:45:04.680Z,964.35
2019-05-20T08:46:04.970Z,964.26
2019-05-20T08:47:05.358Z,964.32
2019-05-20T08:48:09.754Z,964.32
2019-05-20T08:49:11.700Z,964.32
2019-05-20T08:50:13.700Z,964.11
2019-05-20T08:51:05.145Z,964.25
2019-05-20T08:52:04.556Z,964.31
2019-05-20T08:53:04.597Z,964.27
2019-05-20T08:54:04.658Z,964.33
2019-05-20T08:55:05.112Z,964.21
2019-05-20T08:56:04.789Z,964.29
2019-05-20T08:57:04.885Z,964.14
2019-05-20T08:58:05.011Z,964.28
2019-05-20T08:59:05.070Z,964.30
2019-05-20T09:00:04.788Z,964.26
2019-05-20T09:01:05.623Z,964.12
2019-05-20T09:02:05.187Z,964.14
2019-05-20T09:03:05.027Z,964.31
2019-05-20T09:04:04.997Z,964.28
2019-05-20T09:05:05.078Z,964.28
2019-05-20T09:06:05.117Z,964.31
2019-05-20T09:07:05.407Z,964.13
2019-05-20T09:08:05.225Z,964.19
2019-05-20T09:09:05.206Z,964.19
2019-05-20T09:10:05.299Z,964.19
2019-05-20T09:11:05.117Z,964.13
2019-05-20T09:12:05.334Z,964.25
2019-05-20T09:13:05.207Z,964.30
2019-05-20T09:14:05.077Z,964.33
2019-05-20T09:15:04.537Z,964.27
2019-05-20T09:16:04.911Z,964.27
2019-05-20T09:17:04.484Z,964.18
2019-05-20T09:18:04.610Z,964.24
2019-05-20T09:19:04.861Z,964.23
2019-05-20T09:20:04.680Z,964.17
2019-05-20T09:21:05.176Z,964.06
2019-05-20T09:22:09.759Z,964.11
2019-05-20T09:23:05.070Z,964.17
2019-05-20T09:24:04.995Z,964.23
2019-05-20T09:25:05.169Z,964.20
2019-05-20T09:26:05.324Z,963.99
2019-05-20T09:27:05.264Z,964.05
2019-05-20T09:28:05.248Z,964.11
2019-05-20T09:29:05.210Z,964.14
2019-05-20T09:30:05.240Z,964.16
2019-05-20T09:31:05.136Z,964.13
2019-05-20T09:32:04.982Z,964.19
2019-05-20T09:33:05.391Z,964.01
2019-05-20T09:34:04.970Z,964.22
2019-05-20T09:35:04.474Z,964.16
2019-05-20T09:36:04.706Z,964.01
2019-05-20T09:37:05.076Z,964.06
2019-05-20T09:38:21.002Z,964.06
2019-05-20T09:39:04.997Z,964.06
2019-05-20T09:40:05.181Z,964.03
2019-05-20T09:41:05.221Z,964.06
2019-05-20T09:42:05.214Z,964.09
2019-05-20T09:43:05.402Z,963.97
2019-05-20T09:44:04.814Z,964.14
2019-05-20T09:45:05.298Z,963.96
2019-05-20T09:46:08.632Z,963.99
2019-05-20T09:47:05.225Z,964.13
2019-05-20T09:48:04.390Z,963.98
2019-05-20T09:49:05.115Z,964.04
2019-05-20T09:50:04.445Z,964.04
2019-05-20T09:51:04.472Z,964.10
2019-05-20T09:52:04.487Z,964.04
2019-05-20T09:53:07.823Z,964.18
2019-05-20T09:54:05.359Z,964.15
2019-05-20T09:55:04.726Z,964.09
2019-05-20T09:56:10.238Z,964.09
2019-05-20T09:57:04.794Z,964.09
2019-05-20T09:58:04.712Z,964.12
2019-05-20T09:59:05.104Z,963.94
2019-05-20T10:00:05.042Z,964.06
2019-05-20T10:01:04.905Z,964.00
2019-05-20T10:02:05.351Z,963.94
2019-05-20T10:03:07.604Z,963.97
2019-05-20T10:04:04.360Z,963.89
2019-05-20T10:05:04.546Z,963.89
2019-05-20T10:06:04.858Z,963.93
2019-05-20T10:07:04.747Z,963.94
2019-05-20T10:08:05.178Z,963.86
2019-05-20T10:09:05.271Z,963.91
2019-05-20T10:10:04.731Z,963.99
2019-05-20T10:11:04.941Z,963.90
2019-05-20T10:12:04.428Z,963.99
2019-05-20T10:13:04.760Z,963.88
2019-05-20T10:14:05.067Z,963.93
2019-05-20T10:15:05.098Z,964.02
2019-05-20T10:16:10.095Z,964.05
2019-05-20T10:17:05.398Z,963.99
2019-05-20T10:18:04.515Z,963.93
2019-05-20T10:19:05.351Z,963.92
2019-05-20T10:20:04.387Z,963.89
2019-05-20T10:21:04.688Z,963.87
2019-05-20T10:22:04.954Z,963.87
2019-05-20T10:23:04.408Z,963.75
2019-05-20T10:24:04.540Z,963.87
2019-05-20T10:25:04.420Z,963.83
2019-05-20T10:26:04.828Z,963.77
2019-05-20T10:27:04.952Z,963.83
2019-05-20T10:28:04.945Z,963.74
2019-05-20T10:29:05.083Z,963.86
2019-05-20T10:30:04.444Z,963.83
2019-05-20T10:31:05.324Z,963.71
2019-05-20T10:32:04.618Z,963.83
2019-05-20T10:33:10.569Z,963.80
2019-05-20T10:34:05.375Z,963.74
2019-05-20T10:35:05.279Z,963.80
2019-05-20T10:36:04.513Z,963.77
2019-05-20T10:37:04.497Z,963.83
2019-05-20T10:38:04.918Z,963.81
2019-05-20T10:39:08.656Z,963.81
2019-05-20T10:40:05.303Z,963.86
2019-05-20T10:41:04.831Z,963.80
2019-05-20T10:42:04.912Z,963.75
2019-05-20T10:43:05.078Z,963.83
2019-05-20T10:44:09.838Z,963.74
2019-05-20T10:45:05.153Z,963.83
2019-05-20T10:46:04.845Z,963.97
2019-05-20T10:47:04.651Z,963.66
2019-05-20T10:48:09.357Z,963.77
2019-05-20T10:49:04.868Z,963.89
2019-05-20T10:50:04.916Z,963.83
2019-05-20T10:51:04.943Z,963.86
2019-05-20T10:52:04.809Z,963.81
2019-05-20T10:53:05.312Z,963.84
2019-05-20T10:54:04.523Z,963.87
2019-05-20T10:55:04.412Z,963.81
2019-05-20T10:56:04.755Z,963.89
2019-05-20T10:57:04.645Z,963.69
2019-05-20T10:58:04.652Z,963.75
2019-05-20T10:59:04.516Z,963.87
2019-05-20T11:00:05.036Z,963.84
2019-05-20T11:01:05.123Z,963.75
2019-05-20T11:02:04.947Z,963.86
2019-05-20T11:03:04.937Z,963.72
2019-05-20T11:04:10.387Z,963.83
2019-05-20T11:05:04.666Z,963.69
2019-05-20T11:06:05.445Z,963.74
2019-05-20T11:07:04.670Z,963.68
2019-05-20T11:08:04.776Z,963.80
2019-05-20T11:09:14.631Z,963.77
2019-05-20T11:10:05.228Z,963.77
2019-05-20T11:11:05.235Z,963.85
2019-05-20T11:12:04.578Z,963.76
2019-05-20T11:13:04.759Z,963.64
2019-05-20T11:14:05.174Z,963.88
2019-05-20T11:15:05.179Z,963.82
2019-05-20T11:16:04.412Z,963.82
2019-05-20T11:17:04.750Z,963.79
2019-05-20T11:18:05.409Z,963.67
2019-05-20T11:19:04.686Z,963.79
2019-05-20T11:20:05.149Z,963.67
2019-05-20T11:21:05.380Z,963.70
2019-05-20T11:22:04.759Z,963.67
2019-05-20T11:23:04.839Z,963.79
2019-05-20T11:24:04.827Z,963.70
2019-05-20T11:25:04.696Z,963.78
2019-05-20T11:26:04.862Z,963.72
2019-05-20T11:27:04.723Z,963.69
2019-05-20T11:28:04.445Z,963.75
2019-05-20T11:29:04.760Z,963.64
2019-05-20T11:30:04.767Z,963.55
2019-05-20T11:31:05.200Z,963.70
2019-05-20T11:32:05.041Z,963.67
2019-05-20T11:33:04.969Z,963.64
2019-05-20T11:34:05.040Z,963.58
2019-05-20T11:35:05.039Z,963.66
2019-05-20T11:36:05.222Z,963.72
2019-05-20T11:37:04.480Z,963.63
2019-05-20T11:38:05.119Z,963.57
2019-05-20T11:39:07.682Z,963.60
2019-05-20T11:40:06.143Z,963.51
2019-05-20T11:41:05.107Z,963.45
2019-05-20T11:42:04.778Z,963.57
2019-05-20T11:43:04.591Z,963.54
2019-05-20T11:44:12.311Z,963.45
2019-05-20T11:45:04.635Z,963.48
2019-05-20T11:46:04.588Z,963.42
2019-05-20T11:47:04.561Z,963.51
2019-05-20T11:48:05.034Z,963.45
2019-05-20T11:49:05.203Z,963.39
2019-05-20T11:50:05.115Z,963.56
2019-05-20T11:51:04.821Z,963.53
2019-05-20T11:52:05.170Z,963.50
2019-05-20T11:53:04.480Z,963.39
2019-05-20T11:54:04.645Z,963.45
2019-05-20T11:55:04.721Z,963.45
2019-05-20T11:56:04.541Z,963.48
2019-05-20T11:57:04.547Z,963.51
2019-05-20T11:58:16.559Z,963.45
2019-05-20T11:59:05.197Z,963.39
2019-05-20T12:00:04.674Z,963.42
2019-05-20T12:01:04.695Z,963.34
2019-05-20T12:02:04.711Z,963.40
2019-05-20T12:03:05.088Z,963.52
2019-05-20T12:04:10.327Z,963.43
2019-05-20T12:05:04.542Z,963.43
2019-05-20T12:06:05.643Z,963.49
2019-05-20T12:07:04.680Z,963.29
2019-05-20T12:08:04.917Z,963.37
2019-05-20T12:09:05.333Z,963.40
2019-05-20T12:10:05.389Z,963.38
2019-05-20T12:11:04.699Z,963.44
2019-05-20T12:12:05.023Z,963.47
2019-05-20T12:13:05.059Z,963.38
2019-05-20T12:14:05.135Z,963.21
2019-05-20T12:15:06.554Z,963.39
2019-05-20T12:16:04.917Z,963.30
2019-05-20T12:17:04.897Z,963.42
2019-05-20T12:18:05.011Z,963.39
2019-05-20T12:19:04.836Z,963.34
2019-05-20T12:20:07.879Z,963.37
2019-05-20T12:21:05.155Z,963.31
2019-05-20T12:22:05.092Z,963.42
2019-05-20T12:23:04.541Z,963.48
2019-05-20T12:24:04.368Z,963.28
2019-05-20T12:25:05.476Z,963.45
2019-05-20T12:26:05.308Z,963.34
2019-05-20T12:27:04.753Z,963.37
2019-05-20T12:28:05.124Z,963.37